sensor_id;sensor_type;location;lat;lon;timestamp;P1;durP1;ratioP1;P2;durP2;ratioP2
40793;SDS011;26502;51.886;15.604;2024-03-07T00:02:22;37.20;;;24.90;;
40793;SDS011;26502;51.886;15.604;2024-03-07T00:07:48;36.40;;;24.40;;
40793;SDS011;26502;51.886;15.604;2024-03-07T00:13:14;36.60;;;24.20;;
40793;SDS011;26502;51.886;15.604;2024-03-07T00:18:40;34.40;;;23.40;;
40793;SDS011;26502;51.886;15.604;2024-03-07T00:24:06;35.90;;;22.50;;
40793;SDS011;26502;51.886;15.604;2024-03-07T00:29:32;34.50;;;22.90;;
40793;SDS011;26502;51.886;15.604;2024-03-07T00:35:00;34.30;;;22.60;;
40793;SDS011;26502;51.886;15.604;2024-03-07T00:40:27;33.00;;;21.50;;
40793;SDS011;26502;51.886;15.604;2024-03-07T00:45:53;35.40;;;22.40;;
40793;SDS011;26502;51.886;15.604;2024-03-07T00:51:19;33.50;;;21.10;;
40793;SDS011;26502;51.886;15.604;2024-03-07T00:56:45;32.50;;;20.90;;
40793;SDS011;26502;51.886;15.604;2024-03-07T01:02:12;30.20;;;20.80;;
40793;SDS011;26502;51.886;15.604;2024-03-07T01:07:39;35.20;;;22.10;;
40793;SDS011;26502;51.886;15.604;2024-03-07T01:13:05;33.80;;;21.80;;
40793;SDS011;26502;51.886;15.604;2024-03-07T01:18:38;34.70;;;21.30;;
40793;SDS011;26502;51.886;15.604;2024-03-07T01:24:05;36.00;;;21.30;;
40793;SDS011;26502;51.886;15.604;2024-03-07T01:29:32;36.60;;;21.40;;
40793;SDS011;26502;51.886;15.604;2024-03-07T01:34:58;31.50;;;19.30;;
40793;SDS011;26502;51.886;15.604;2024-03-07T01:40:26;32.30;;;20.60;;
40793;SDS011;26502;51.886;15.604;2024-03-07T01:45:53;29.50;;;18.40;;
40793;SDS011;26502;51.886;15.604;2024-03-07T01:51:21;30.90;;;17.40;;
40793;SDS011;26502;51.886;15.604;2024-03-07T01:56:47;30.00;;;18.50;;
40793;SDS011;26502;51.886;15.604;2024-03-07T02:02:13;32.70;;;19.60;;
40793;SDS011;26502;51.886;15.604;2024-03-07T02:07:40;31.90;;;18.60;;
40793;SDS011;26502;51.886;15.604;2024-03-07T02:13:07;29.50;;;18.60;;
40793;SDS011;26502;51.886;15.604;2024-03-07T02:18:32;31.10;;;17.70;;
40793;SDS011;26502;51.886;15.604;2024-03-07T02:24:00;34.70;;;19.70;;
40793;SDS011;26502;51.886;15.604;2024-03-07T02:29:26;30.70;;;18.60;;
40793;SDS011;26502;51.886;15.604;2024-03-07T02:34:53;30.60;;;18.80;;
40793;SDS011;26502;51.886;15.604;2024-03-07T02:40:19;32.30;;;19.60;;
40793;SDS011;26502;51.886;15.604;2024-03-07T02:45:45;27.40;;;17.20;;
40793;SDS011;26502;51.886;15.604;2024-03-07T02:51:12;27.40;;;16.40;;
40793;SDS011;26502;51.886;15.604;2024-03-07T02:56:38;30.70;;;18.60;;
40793;SDS011;26502;51.886;15.604;2024-03-07T03:02:04;31.60;;;18.30;;
40793;SDS011;26502;51.886;15.604;2024-03-07T03:07:30;33.20;;;17.70;;
40793;SDS011;26502;51.886;15.604;2024-03-07T03:12:56;31.10;;;18.50;;
40793;SDS011;26502;51.886;15.604;2024-03-07T03:18:23;31.30;;;19.20;;
40793;SDS011;26502;51.886;15.604;2024-03-07T03:23:49;33.50;;;17.70;;
40793;SDS011;26502;51.886;15.604;2024-03-07T03:29:16;27.20;;;17.50;;
40793;SDS011;26502;51.886;15.604;2024-03-07T03:34:42;28.60;;;16.60;;
40793;SDS011;26502;51.886;15.604;2024-03-07T03:40:09;28.50;;;17.60;;
40793;SDS011;26502;51.886;15.604;2024-03-07T03:45:36;30.20;;;18.20;;
40793;SDS011;26502;51.886;15.604;2024-03-07T03:51:02;31.40;;;18.30;;
40793;SDS011;26502;51.886;15.604;2024-03-07T03:56:28;29.70;;;17.40;;
40793;SDS011;26502;51.886;15.604;2024-03-07T04:01:55;31.50;;;18.30;;
40793;SDS011;26502;51.886;15.604;2024-03-07T04:07:21;34.50;;;19.90;;
40793;SDS011;26502;51.886;15.604;2024-03-07T04:12:48;33.30;;;18.70;;
40793;SDS011;26502;51.886;15.604;2024-03-07T04:18:13;30.10;;;18.40;;
40793;SDS011;26502;51.886;15.604;2024-03-07T04:23:41;34.00;;;19.40;;
40793;SDS011;26502;51.886;15.604;2024-03-07T04:29:09;33.00;;;19.20;;
40793;SDS011;26502;51.886;15.604;2024-03-07T04:34:37;29.20;;;17.50;;
40793;SDS011;26502;51.886;15.604;2024-03-07T04:40:04;30.50;;;19.50;;
40793;SDS011;26502;51.886;15.604;2024-03-07T04:45:39;30.30;;;17.70;;
40793;SDS011;26502;51.886;15.604;2024-03-07T04:51:04;30.10;;;18.50;;
40793;SDS011;26502;51.886;15.604;2024-03-07T04:56:31;36.00;;;18.70;;
40793;SDS011;26502;51.886;15.604;2024-03-07T05:01:57;28.80;;;16.40;;
40793;SDS011;26502;51.886;15.604;2024-03-07T05:07:22;32.90;;;19.70;;
40793;SDS011;26502;51.886;15.604;2024-03-07T05:12:49;34.70;;;19.70;;
40793;SDS011;26502;51.886;15.604;2024-03-07T05:18:15;33.70;;;18.10;;
40793;SDS011;26502;51.886;15.604;2024-03-07T05:23:41;34.10;;;19.60;;
40793;SDS011;26502;51.886;15.604;2024-03-07T05:29:08;32.00;;;19.10;;
40793;SDS011;26502;51.886;15.604;2024-03-07T05:34:36;37.40;;;20.00;;
40793;SDS011;26502;51.886;15.604;2024-03-07T05:40:04;34.60;;;19.70;;
40793;SDS011;26502;51.886;15.604;2024-03-07T05:45:32;32.60;;;20.60;;
40793;SDS011;26502;51.886;15.604;2024-03-07T05:50:59;36.70;;;20.10;;
40793;SDS011;26502;51.886;15.604;2024-03-07T05:56:25;32.10;;;19.30;;
40793;SDS011;26502;51.886;15.604;2024-03-07T06:01:51;35.50;;;20.60;;
40793;SDS011;26502;51.886;15.604;2024-03-07T06:07:18;38.80;;;22.30;;
40793;SDS011;26502;51.886;15.604;2024-03-07T06:12:44;35.70;;;19.30;;
40793;SDS011;26502;51.886;15.604;2024-03-07T06:18:10;35.60;;;19.20;;
40793;SDS011;26502;51.886;15.604;2024-03-07T06:23:36;35.60;;;20.00;;
40793;SDS011;26502;51.886;15.604;2024-03-07T06:29:02;31.20;;;20.70;;
40793;SDS011;26502;51.886;15.604;2024-03-07T06:34:29;37.00;;;20.60;;
40793;SDS011;26502;51.886;15.604;2024-03-07T06:39:55;34.40;;;19.90;;
40793;SDS011;26502;51.886;15.604;2024-03-07T06:45:21;35.40;;;20.40;;
40793;SDS011;26502;51.886;15.604;2024-03-07T06:50:47;32.20;;;19.60;;
40793;SDS011;26502;51.886;15.604;2024-03-07T06:56:15;37.40;;;20.90;;
40793;SDS011;26502;51.886;15.604;2024-03-07T07:01:41;32.80;;;19.40;;
40793;SDS011;26502;51.886;15.604;2024-03-07T07:07:08;32.10;;;20.30;;
40793;SDS011;26502;51.886;15.604;2024-03-07T07:12:36;29.60;;;19.10;;
40793;SDS011;26502;51.886;15.604;2024-03-07T07:18:02;34.60;;;19.50;;
40793;SDS011;26502;51.886;15.604;2024-03-07T07:23:28;29.10;;;18.90;;
40793;SDS011;26502;51.886;15.604;2024-03-07T07:28:56;34.10;;;21.10;;
40793;SDS011;26502;51.886;15.604;2024-03-07T07:34:22;36.60;;;19.80;;
40793;SDS011;26502;51.886;15.604;2024-03-07T07:39:48;30.80;;;19.40;;
40793;SDS011;26502;51.886;15.604;2024-03-07T07:45:15;32.60;;;20.10;;
40793;SDS011;26502;51.886;15.604;2024-03-07T07:50:41;32.00;;;21.00;;
40793;SDS011;26502;51.886;15.604;2024-03-07T07:56:07;33.30;;;20.70;;
40793;SDS011;26502;51.886;15.604;2024-03-07T08:01:33;35.40;;;21.70;;
40793;SDS011;26502;51.886;15.604;2024-03-07T08:07:00;35.20;;;21.70;;
40793;SDS011;26502;51.886;15.604;2024-03-07T08:12:28;34.70;;;21.30;;
40793;SDS011;26502;51.886;15.604;2024-03-07T08:17:53;36.30;;;21.00;;
40793;SDS011;26502;51.886;15.604;2024-03-07T08:23:20;32.50;;;21.20;;
40793;SDS011;26502;51.886;15.604;2024-03-07T08:28:48;34.90;;;21.60;;
40793;SDS011;26502;51.886;15.604;2024-03-07T08:34:14;30.70;;;19.00;;
40793;SDS011;26502;51.886;15.604;2024-03-07T08:39:40;34.40;;;21.60;;
40793;SDS011;26502;51.886;15.604;2024-03-07T08:45:08;33.90;;;21.10;;
40793;SDS011;26502;51.886;15.604;2024-03-07T08:50:34;34.70;;;22.20;;
40793;SDS011;26502;51.886;15.604;2024-03-07T08:56:01;31.50;;;21.40;;
40793;SDS011;26502;51.886;15.604;2024-03-07T09:01:27;40.50;;;21.20;;
40793;SDS011;26502;51.886;15.604;2024-03-07T09:06:53;31.60;;;20.20;;
40793;SDS011;26502;51.886;15.604;2024-03-07T09:12:19;33.90;;;20.80;;
40793;SDS011;26502;51.886;15.604;2024-03-07T09:17:45;30.60;;;20.80;;
40793;SDS011;26502;51.886;15.604;2024-03-07T09:23:11;30.70;;;20.50;;
40793;SDS011;26502;51.886;15.604;2024-03-07T09:28:37;32.20;;;20.20;;
40793;SDS011;26502;51.886;15.604;2024-03-07T09:34:03;31.50;;;20.40;;
40793;SDS011;26502;51.886;15.604;2024-03-07T09:39:30;31.20;;;21.40;;
40793;SDS011;26502;51.886;15.604;2024-03-07T09:44:57;31.60;;;20.70;;
40793;SDS011;26502;51.886;15.604;2024-03-07T09:50:26;31.20;;;20.10;;
40793;SDS011;26502;51.886;15.604;2024-03-07T09:55:55;34.80;;;20.10;;
40793;SDS011;26502;51.886;15.604;2024-03-07T10:01:21;30.30;;;19.60;;
40793;SDS011;26502;51.886;15.604;2024-03-07T10:06:51;36.40;;;23.20;;
40793;SDS011;26502;51.886;15.604;2024-03-07T10:12:18;33.80;;;21.90;;
40793;SDS011;26502;51.886;15.604;2024-03-07T10:17:45;26.80;;;19.20;;
40793;SDS011;26502;51.886;15.604;2024-03-07T10:23:13;27.90;;;18.00;;
40793;SDS011;26502;51.886;15.604;2024-03-07T10:28:44;27.90;;;19.50;;
40793;SDS011;26502;51.886;15.604;2024-03-07T10:34:12;25.30;;;17.80;;
40793;SDS011;26502;51.886;15.604;2024-03-07T10:39:38;23.30;;;17.60;;
40793;SDS011;26502;51.886;15.604;2024-03-07T10:45:05;24.50;;;16.60;;
40793;SDS011;26502;51.886;15.604;2024-03-07T10:50:38;25.60;;;18.00;;
40793;SDS011;26502;51.886;15.604;2024-03-07T10:56:20;27.80;;;18.20;;
40793;SDS011;26502;51.886;15.604;2024-03-07T11:01:59;24.50;;;15.70;;
40793;SDS011;26502;51.886;15.604;2024-03-07T11:07:35;23.70;;;16.00;;
40793;SDS011;26502;51.886;15.604;2024-03-07T11:13:02;22.90;;;15.70;;
40793;SDS011;26502;51.886;15.604;2024-03-07T11:18:30;27.70;;;17.60;;
40793;SDS011;26502;51.886;15.604;2024-03-07T11:24:00;23.20;;;18.30;;
40793;SDS011;26502;51.886;15.604;2024-03-07T11:29:50;25.00;;;16.20;;
40793;SDS011;26502;51.886;15.604;2024-03-07T11:35:16;24.40;;;16.80;;
40793;SDS011;26502;51.886;15.604;2024-03-07T11:40:51;23.70;;;16.70;;
40793;SDS011;26502;51.886;15.604;2024-03-07T11:46:19;23.50;;;17.20;;
40793;SDS011;26502;51.886;15.604;2024-03-07T11:51:46;24.90;;;17.90;;
40793;SDS011;26502;51.886;15.604;2024-03-07T11:57:14;25.10;;;17.70;;
40793;SDS011;26502;51.886;15.604;2024-03-07T12:02:42;22.80;;;15.70;;
40793;SDS011;26502;51.886;15.604;2024-03-07T12:08:09;20.80;;;14.90;;
40793;SDS011;26502;51.886;15.604;2024-03-07T12:13:36;20.00;;;15.70;;
40793;SDS011;26502;51.886;15.604;2024-03-07T12:19:03;24.30;;;14.90;;
40793;SDS011;26502;51.886;15.604;2024-03-07T12:24:30;25.30;;;16.90;;
40793;SDS011;26502;51.886;15.604;2024-03-07T12:29:57;20.70;;;15.20;;
40793;SDS011;26502;51.886;15.604;2024-03-07T12:35:30;19.40;;;15.20;;
40793;SDS011;26502;51.886;15.604;2024-03-07T12:41:06;20.80;;;15.00;;
40793;SDS011;26502;51.886;15.604;2024-03-07T12:46:37;18.20;;;14.00;;
40793;SDS011;26502;51.886;15.604;2024-03-07T12:52:07;18.40;;;13.10;;
40793;SDS011;26502;51.886;15.604;2024-03-07T12:57:35;22.40;;;13.20;;
40793;SDS011;26502;51.886;15.604;2024-03-07T13:03:04;20.10;;;13.00;;
40793;SDS011;26502;51.886;15.604;2024-03-07T13:08:30;17.90;;;12.70;;
40793;SDS011;26502;51.886;15.604;2024-03-07T13:13:56;20.40;;;13.10;;
40793;SDS011;26502;51.886;15.604;2024-03-07T13:19:22;18.00;;;13.30;;
40793;SDS011;26502;51.886;15.604;2024-03-07T13:24:48;16.00;;;11.00;;
40793;SDS011;26502;51.886;15.604;2024-03-07T13:30:14;16.50;;;11.20;;
40793;SDS011;26502;51.886;15.604;2024-03-07T13:35:45;19.90;;;13.20;;
40793;SDS011;26502;51.886;15.604;2024-03-07T13:41:11;20.70;;;12.20;;
40793;SDS011;26502;51.886;15.604;2024-03-07T13:46:38;17.20;;;12.30;;
40793;SDS011;26502;51.886;15.604;2024-03-07T13:52:06;16.00;;;11.80;;
40793;SDS011;26502;51.886;15.604;2024-03-07T13:57:41;16.80;;;12.00;;
40793;SDS011;26502;51.886;15.604;2024-03-07T14:03:22;16.40;;;11.60;;
40793;SDS011;26502;51.886;15.604;2024-03-07T14:09:24;15.20;;;11.50;;
40793;SDS011;26502;51.886;15.604;2024-03-07T14:21:13;20.40;;;12.00;;
40793;SDS011;26502;51.886;15.604;2024-03-07T14:32:45;18.10;;;11.80;;
40793;SDS011;26502;51.886;15.604;2024-03-07T14:38:25;16.10;;;11.40;;
40793;SDS011;26502;51.886;15.604;2024-03-07T14:43:53;15.60;;;11.30;;
40793;SDS011;26502;51.886;15.604;2024-03-07T14:49:19;12.20;;;10.20;;
40793;SDS011;26502;51.886;15.604;2024-03-07T14:54:47;16.00;;;11.00;;
40793;SDS011;26502;51.886;15.604;2024-03-07T15:00:14;15.20;;;11.70;;
40793;SDS011;26502;51.886;15.604;2024-03-07T15:05:49;14.60;;;10.40;;
40793;SDS011;26502;51.886;15.604;2024-03-07T15:11:17;18.50;;;11.60;;
40793;SDS011;26502;51.886;15.604;2024-03-07T15:16:47;15.70;;;11.40;;
40793;SDS011;26502;51.886;15.604;2024-03-07T15:22:15;11.60;;;9.00;;
40793;SDS011;26502;51.886;15.604;2024-03-07T15:27:44;13.60;;;10.20;;
40793;SDS011;26502;51.886;15.604;2024-03-07T15:33:11;14.60;;;10.70;;
40793;SDS011;26502;51.886;15.604;2024-03-07T15:38:38;13.10;;;10.70;;
40793;SDS011;26502;51.886;15.604;2024-03-07T15:44:05;17.00;;;10.70;;
40793;SDS011;26502;51.886;15.604;2024-03-07T15:49:32;17.10;;;10.40;;
40793;SDS011;26502;51.886;15.604;2024-03-07T15:55:02;14.40;;;10.50;;
40793;SDS011;26502;51.886;15.604;2024-03-07T16:00:29;17.20;;;12.30;;
40793;SDS011;26502;51.886;15.604;2024-03-07T16:05:57;13.20;;;10.30;;
40793;SDS011;26502;51.886;15.604;2024-03-07T16:11:23;19.50;;;12.60;;
40793;SDS011;26502;51.886;15.604;2024-03-07T16:16:49;16.20;;;11.30;;
40793;SDS011;26502;51.886;15.604;2024-03-07T16:22:18;15.90;;;11.00;;
40793;SDS011;26502;51.886;15.604;2024-03-07T16:27:44;16.40;;;11.80;;
40793;SDS011;26502;51.886;15.604;2024-03-07T16:33:10;17.70;;;10.70;;
40793;SDS011;26502;51.886;15.604;2024-03-07T16:38:39;15.10;;;10.10;;
40793;SDS011;26502;51.886;15.604;2024-03-07T16:44:05;16.00;;;11.80;;
40793;SDS011;26502;51.886;15.604;2024-03-07T16:49:31;13.70;;;10.60;;
40793;SDS011;26502;51.886;15.604;2024-03-07T16:54:58;18.40;;;10.80;;
40793;SDS011;26502;51.886;15.604;2024-03-07T17:00:24;19.90;;;11.50;;
40793;SDS011;26502;51.886;15.604;2024-03-07T17:05:52;16.70;;;11.10;;
40793;SDS011;26502;51.886;15.604;2024-03-07T17:11:19;15.90;;;11.80;;
40793;SDS011;26502;51.886;15.604;2024-03-07T17:16:45;19.10;;;11.70;;
40793;SDS011;26502;51.886;15.604;2024-03-07T17:22:12;16.20;;;11.20;;
40793;SDS011;26502;51.886;15.604;2024-03-07T17:27:41;18.50;;;11.90;;
40793;SDS011;26502;51.886;15.604;2024-03-07T17:33:12;18.10;;;10.50;;
40793;SDS011;26502;51.886;15.604;2024-03-07T17:38:39;19.40;;;12.30;;
40793;SDS011;26502;51.886;15.604;2024-03-07T17:44:05;16.60;;;10.20;;
40793;SDS011;26502;51.886;15.604;2024-03-07T17:49:33;18.90;;;12.20;;
40793;SDS011;26502;51.886;15.604;2024-03-07T17:55:01;19.50;;;11.90;;
40793;SDS011;26502;51.886;15.604;2024-03-07T18:00:31;16.90;;;11.30;;
40793;SDS011;26502;51.886;15.604;2024-03-07T18:05:59;19.60;;;12.70;;
40793;SDS011;26502;51.886;15.604;2024-03-07T18:11:25;18.10;;;11.00;;
40793;SDS011;26502;51.886;15.604;2024-03-07T18:16:52;20.40;;;12.80;;
40793;SDS011;26502;51.886;15.604;2024-03-07T18:22:19;18.50;;;12.30;;
40793;SDS011;26502;51.886;15.604;2024-03-07T18:27:45;29.50;;;17.60;;
40793;SDS011;26502;51.886;15.604;2024-03-07T18:33:11;25.90;;;14.50;;
40793;SDS011;26502;51.886;15.604;2024-03-07T18:38:37;23.40;;;13.20;;
40793;SDS011;26502;51.886;15.604;2024-03-07T18:44:03;23.10;;;14.40;;
40793;SDS011;26502;51.886;15.604;2024-03-07T18:49:29;24.80;;;13.80;;
40793;SDS011;26502;51.886;15.604;2024-03-07T18:54:58;27.30;;;15.40;;
40793;SDS011;26502;51.886;15.604;2024-03-07T19:00:39;28.20;;;16.60;;
40793;SDS011;26502;51.886;15.604;2024-03-07T19:06:09;26.50;;;15.20;;
40793;SDS011;26502;51.886;15.604;2024-03-07T19:11:34;25.10;;;14.50;;
40793;SDS011;26502;51.886;15.604;2024-03-07T19:17:01;25.80;;;15.40;;
40793;SDS011;26502;51.886;15.604;2024-03-07T19:22:33;24.30;;;14.60;;
40793;SDS011;26502;51.886;15.604;2024-03-07T19:27:59;22.80;;;14.50;;
40793;SDS011;26502;51.886;15.604;2024-03-07T19:33:29;24.80;;;14.90;;
40793;SDS011;26502;51.886;15.604;2024-03-07T19:38:57;23.90;;;15.10;;
40793;SDS011;26502;51.886;15.604;2024-03-07T19:44:34;25.90;;;15.60;;
40793;SDS011;26502;51.886;15.604;2024-03-07T19:50:08;23.20;;;15.20;;
40793;SDS011;26502;51.886;15.604;2024-03-07T19:55:39;23.50;;;14.30;;
40793;SDS011;26502;51.886;15.604;2024-03-07T20:01:05;26.40;;;15.40;;
40793;SDS011;26502;51.886;15.604;2024-03-07T20:06:35;25.70;;;15.70;;
40793;SDS011;26502;51.886;15.604;2024-03-07T20:12:02;26.60;;;15.50;;
40793;SDS011;26502;51.886;15.604;2024-03-07T20:17:28;27.90;;;15.00;;
40793;SDS011;26502;51.886;15.604;2024-03-07T20:22:55;25.20;;;15.10;;
40793;SDS011;26502;51.886;15.604;2024-03-07T20:28:23;29.20;;;17.10;;
40793;SDS011;26502;51.886;15.604;2024-03-07T20:33:49;27.00;;;16.40;;
40793;SDS011;26502;51.886;15.604;2024-03-07T20:39:17;27.60;;;16.50;;
40793;SDS011;26502;51.886;15.604;2024-03-07T20:44:47;27.30;;;13.00;;
40793;SDS011;26502;51.886;15.604;2024-03-07T20:50:13;27.10;;;16.10;;
40793;SDS011;26502;51.886;15.604;2024-03-07T20:55:40;25.50;;;15.80;;
40793;SDS011;26502;51.886;15.604;2024-03-07T21:01:06;22.80;;;14.60;;
40793;SDS011;26502;51.886;15.604;2024-03-07T21:06:35;25.30;;;15.70;;
40793;SDS011;26502;51.886;15.604;2024-03-07T21:12:06;33.50;;;18.50;;
40793;SDS011;26502;51.886;15.604;2024-03-07T21:17:32;31.70;;;18.80;;
40793;SDS011;26502;51.886;15.604;2024-03-07T21:22:59;33.90;;;18.70;;
40793;SDS011;26502;51.886;15.604;2024-03-07T21:28:27;32.40;;;18.30;;
40793;SDS011;26502;51.886;15.604;2024-03-07T21:33:55;36.00;;;18.10;;
40793;SDS011;26502;51.886;15.604;2024-03-07T21:39:22;30.50;;;17.60;;
40793;SDS011;26502;51.886;15.604;2024-03-07T21:44:48;28.90;;;17.00;;
40793;SDS011;26502;51.886;15.604;2024-03-07T21:50:13;28.70;;;16.60;;
40793;SDS011;26502;51.886;15.604;2024-03-07T21:55:40;32.40;;;18.70;;
40793;SDS011;26502;51.886;15.604;2024-03-07T22:01:06;29.10;;;17.60;;
40793;SDS011;26502;51.886;15.604;2024-03-07T22:06:34;32.30;;;18.30;;
40793;SDS011;26502;51.886;15.604;2024-03-07T22:12:00;30.80;;;17.60;;
40793;SDS011;26502;51.886;15.604;2024-03-07T22:17:27;33.70;;;18.70;;
40793;SDS011;26502;51.886;15.604;2024-03-07T22:22:53;32.00;;;18.80;;
40793;SDS011;26502;51.886;15.604;2024-03-07T22:28:20;37.70;;;20.00;;
40793;SDS011;26502;51.886;15.604;2024-03-07T22:33:46;37.40;;;19.50;;
40793;SDS011;26502;51.886;15.604;2024-03-07T22:39:12;37.50;;;21.10;;
40793;SDS011;26502;51.886;15.604;2024-03-07T22:44:40;40.70;;;20.90;;
40793;SDS011;26502;51.886;15.604;2024-03-07T22:50:08;42.50;;;22.90;;
40793;SDS011;26502;51.886;15.604;2024-03-07T22:55:35;40.10;;;23.30;;
40793;SDS011;26502;51.886;15.604;2024-03-07T23:01:01;45.80;;;23.50;;
40793;SDS011;26502;51.886;15.604;2024-03-07T23:06:27;44.80;;;23.90;;
40793;SDS011;26502;51.886;15.604;2024-03-07T23:11:55;42.30;;;22.40;;
40793;SDS011;26502;51.886;15.604;2024-03-07T23:17:23;40.20;;;21.90;;
40793;SDS011;26502;51.886;15.604;2024-03-07T23:22:52;42.10;;;23.00;;
40793;SDS011;26502;51.886;15.604;2024-03-07T23:28:19;46.70;;;24.20;;
40793;SDS011;26502;51.886;15.604;2024-03-07T23:33:46;42.90;;;23.10;;
40793;SDS011;26502;51.886;15.604;2024-03-07T23:39:13;50.00;;;25.00;;
40793;SDS011;26502;51.886;15.604;2024-03-07T23:44:40;44.60;;;24.70;;
40793;SDS011;26502;51.886;15.604;2024-03-07T23:50:06;41.50;;;23.30;;
40793;SDS011;26502;51.886;15.604;2024-03-07T23:55:33;44.40;;;24.60;;
